Time;durP1;ratioP1;P1;durP2;ratioP2;P2;SDS_P1;SDS_P2;PMS_P1;PMS_P2;Temp;Humidity;BMP_temperature;BMP_pressure;BME280_temperature;BME280_humidity;BME280_pressure;Samples;Min_cycle;Max_cycle;Signal;HPM_P1;HPM_P2
2022/05/26 00:04:45;;;;;;;;;;;19.30;56.70;;;;;;20850510;28;19919;-83
2022/05/26 00:14:45;;;;;;;;;;;19.30;56.70;;;;;;20843266;28;20434;-83
2022/05/26 00:24:46;;;;;;;;;;;19.30;56.70;;;;;;20811123;28;19921;-83
2022/05/26 00:34:46;;;;;;;;;;;19.30;56.90;;;;;;20798417;28;19968;-84
2022/05/26 00:44:47;;;;;;;;;;;19.30;56.90;;;;;;20796999;28;19967;-83
2022/05/26 00:54:48;;;;;;;;;;;19.30;57.10;;;;;;20796438;28;19920;-82
2022/05/26 01:04:50;;;;;;;;;;;19.30;57.00;;;;;;20795058;28;20012;-83
2022/05/26 01:14:55;;;;;;;;;;;19.30;57.10;;;;;;20794400;28;19919;-81
2022/05/26 01:25:01;;;;;;;;;;;19.20;56.90;;;;;;20810383;28;19917;-80
2022/05/26 01:35:08;;;;;;;;;;;19.20;56.90;;;;;;20792020;28;19913;-80
2022/05/26 01:45:27;;;;;;;;;;;19.20;57.00;;;;;;20791825;28;19923;-81
2022/05/26 01:55:31;;;;;;;;;;;19.20;56.90;;;;;;20808861;28;20410;-81
2022/05/26 02:05:33;;;;;;;;;;;19.20;57.00;;;;;;20806737;28;19913;-82
2022/05/26 02:15:41;;;;;;;;;;;19.20;57.00;;;;;;20781569;28;19919;-82
2022/05/26 02:25:41;;;;;;;;;;;19.20;57.20;;;;;;20789684;28;19917;-80
2022/05/26 02:35:42;;;;;;;;;;;19.20;57.30;;;;;;20789426;28;19913;-80
2022/05/26 02:46:01;;;;;;;;;;;19.20;57.40;;;;;;20805270;28;19913;-80
2022/05/26 02:56:05;;;;;;;;;;;19.20;57.60;;;;;;20803746;28;19920;-80
2022/05/26 03:06:13;;;;;;;;;;;19.10;57.60;;;;;;20804043;28;19913;-81
2022/05/26 03:16:14;;;;;;;;;;;19.10;57.70;;;;;;20786457;28;19917;-80
2022/05/26 03:26:15;;;;;;;;;;;19.10;57.90;;;;;;20802491;28;20008;-80
2022/05/26 03:46:38;;;;;;;;;;;19.10;58.00;;;;;;20818236;28;19924;-82
2022/05/26 03:56:38;;;;;;;;;;;19.10;58.10;;;;;;20801542;28;20361;-81
2022/05/26 04:06:39;;;;;;;;;;;19.10;58.10;;;;;;20813386;28;19952;-80
2022/05/26 04:16:39;;;;;;;;;;;19.10;58.20;;;;;;20815583;28;20285;-80
2022/05/26 04:26:40;;;;;;;;;;;19.10;58.30;;;;;;20809217;28;19916;-80
2022/05/26 04:36:41;;;;;;;;;;;19.10;58.50;;;;;;20798216;28;19970;-80
2022/05/26 04:46:41;;;;;;;;;;;19.00;58.60;;;;;;20796969;28;20006;-80
2022/05/26 04:56:42;;;;;;;;;;;19.00;58.90;;;;;;20795235;28;20379;-79
2022/05/26 05:06:43;;;;;;;;;;;19.00;59.20;;;;;;20795526;28;19999;-78
2022/05/26 05:16:44;;;;;;;;;;;19.00;59.40;;;;;;20808980;28;19939;-79
2022/05/26 05:26:45;;;;;;;;;;;19.00;59.90;;;;;;20810168;28;19999;-79
2022/05/26 05:36:46;;;;;;;;;;;19.00;60.20;;;;;;20808479;28;20015;-79
2022/05/26 05:46:59;;;;;;;;;;;18.90;60.50;;;;;;20808558;28;19913;-79
2022/05/26 05:56:59;;;;;;;;;;;19.00;60.70;;;;;;20809839;28;19956;-78
2022/05/26 06:07:00;;;;;;;;;;;19.00;60.80;;;;;;20806955;28;19917;-79
2022/05/26 06:17:00;;;;;;;;;;;19.00;60.80;;;;;;20795599;28;19921;-78
2022/05/26 06:29:49;;;;;;;;;;;19.00;61.00;;;;;;20771746;28;19944;-78
2022/05/26 06:37:22;;;;;;;;;;;19.10;61.10;;;;;;20790450;28;19916;-78
2022/05/26 06:47:23;;;;;;;;;;;19.00;61.20;;;;;;20803888;28;20323;-76
2022/05/26 06:57:23;;;;;;;;;;;19.10;61.50;;;;;;20763026;28;19917;-78
2022/05/26 07:07:25;;;;;;;;;;;19.20;61.60;;;;;;20727275;28;20457;-76
2022/05/26 07:17:25;;;;;;;;;;;19.10;61.60;;;;;;21147373;23;20050;-80
2022/05/26 07:27:26;;;;;;;;;;;19.20;61.90;;;;;;20850709;28;19978;-80
2022/05/26 07:47:47;;;;;;;;;;;19.20;61.90;;;;;;20900677;28;20240;-78
2022/05/26 07:57:48;;;;;;;;;;;19.20;61.90;;;;;;20902122;28;19917;-84
2022/05/26 08:07:48;;;;;;;;;;;19.20;61.80;;;;;;20870472;28;19966;-80
2022/05/26 08:17:49;;;;;;;;;;;19.20;61.80;;;;;;20865602;28;20299;-82
2022/05/26 08:27:49;;;;;;;;;;;19.20;61.80;;;;;;20918148;28;20371;-79
2022/05/26 08:37:50;;;;;;;;;;;19.30;61.90;;;;;;20899559;28;19912;-79
2022/05/26 08:47:51;;;;;;;;;;;19.20;61.90;;;;;;20882787;28;20325;-83
2022/05/26 08:57:58;;;;;;;;;;;19.20;61.90;;;;;;20883179;28;19998;-78
2022/05/26 09:18:24;;;;;;;;;;;19.30;62.00;;;;;;20813195;28;20352;-76
2022/05/26 09:28:26;;;;;;;;;;;19.30;62.00;;;;;;20872433;28;19908;-76
2022/05/26 09:38:30;;;;;;;;;;;19.30;61.90;;;;;;20880279;28;19955;-76
2022/05/26 09:48:33;;;;;;;;;;;19.20;61.70;;;;;;20874259;28;19912;-77
2022/05/26 09:58:36;;;;;;;;;;;19.30;61.60;;;;;;20874121;28;20433;-83
2022/05/26 10:08:38;;;;;;;;;;;19.30;61.30;;;;;;20859569;28;20372;-77
2022/05/26 10:18:54;;;;;;;;;;;19.30;61.10;;;;;;20911205;28;20268;-79
2022/05/26 10:28:55;;;;;;;;;;;19.30;60.90;;;;;;20868599;28;19913;-79
2022/05/26 10:39:18;;;;;;;;;;;19.30;60.60;;;;;;20906654;28;19927;-76
2022/05/26 10:49:20;;;;;;;;;;;19.30;60.50;;;;;;20902608;28;19923;-82
2022/05/26 10:59:20;;;;;;;;;;;19.30;60.50;;;;;;20926199;28;19959;-79
2022/05/26 11:09:42;;;;;;;;;;;19.30;60.40;;;;;;20912637;28;19924;-79
2022/05/26 11:19:43;;;;;;;;;;;19.40;60.40;;;;;;20947474;28;19920;-78
2022/05/26 11:29:45;;;;;;;;;;;19.40;60.50;;;;;;20968163;28;20550;-77
2022/05/26 11:39:46;;;;;;;;;;;19.40;60.80;;;;;;20968616;28;19924;-79
2022/05/26 11:49:46;;;;;;;;;;;19.30;59.80;;;;;;20954155;28;20021;-79
2022/05/26 11:59:47;;;;;;;;;;;19.30;58.90;;;;;;20886552;28;20280;-78
2022/05/26 12:09:49;;;;;;;;;;;19.40;58.00;;;;;;20891833;28;19920;-75
2022/05/26 12:19:49;;;;;;;;;;;19.30;57.00;;;;;;20896681;28;19962;-80
2022/05/26 12:29:50;;;;;;;;;;;19.40;56.60;;;;;;20878962;28;19914;-82
2022/05/26 12:39:55;;;;;;;;;;;19.40;56.50;;;;;;20913384;28;20361;-80
2022/05/26 12:49:55;;;;;;;;;;;19.40;56.70;;;;;;20879387;28;19917;-79
2022/05/26 13:00:15;;;;;;;;;;;19.40;56.70;;;;;;20877765;28;19923;-80
2022/05/26 13:10:15;;;;;;;;;;;19.40;56.40;;;;;;20893785;28;19958;-81
2022/05/26 13:20:30;;;;;;;;;;;19.40;56.50;;;;;;20876694;28;19960;-80
2022/05/26 13:40:52;;;;;;;;;;;19.40;56.30;;;;;;20876918;28;20335;-79
2022/05/26 13:50:55;;;;;;;;;;;19.40;56.40;;;;;;20890408;28;19962;-80
2022/05/26 14:01:00;;;;;;;;;;;19.40;56.60;;;;;;20845278;28;19975;-80
2022/05/26 14:11:01;;;;;;;;;;;19.40;56.80;;;;;;20808049;28;19913;-80
2022/05/26 14:21:14;;;;;;;;;;;19.40;56.80;;;;;;20830290;28;19921;-81
2022/05/26 14:31:18;;;;;;;;;;;19.30;56.90;;;;;;20872374;28;19909;-80
2022/05/26 14:41:18;;;;;;;;;;;19.40;57.00;;;;;;20871150;28;19928;-80
2022/05/26 14:51:28;;;;;;;;;;;19.40;57.20;;;;;;20886830;28;19913;-80
2022/05/26 15:01:29;;;;;;;;;;;19.40;57.30;;;;;;20886455;28;19916;-81
2022/05/26 15:11:30;;;;;;;;;;;19.40;57.40;;;;;;20870540;28;20249;-81
2022/05/26 15:21:30;;;;;;;;;;;19.30;57.40;;;;;;20886680;28;19921;-80
2022/05/26 15:31:31;;;;;;;;;;;19.30;57.50;;;;;;20869424;28;19954;-80
2022/05/26 15:41:31;;;;;;;;;;;19.40;57.70;;;;;;20852983;28;19974;-79
2022/05/26 15:51:32;;;;;;;;;;;19.30;57.70;;;;;;20861821;28;19995;-77
2022/05/26 16:01:32;;;;;;;;;;;19.40;57.90;;;;;;20893558;28;19924;-78
2022/05/26 16:11:33;;;;;;;;;;;19.50;58.30;;;;;;20844490;28;19986;-77
2022/05/26 16:21:34;;;;;;;;;;;19.50;59.10;;;;;;20877285;28;20047;-82
2022/05/26 16:31:35;;;;;;;;;;;19.60;59.60;;;;;;20867619;28;19932;-74
2022/05/26 16:41:36;;;;;;;;;;;19.60;59.90;;;;;;20883638;28;19964;-77
2022/05/26 16:51:37;;;;;;;;;;;19.60;60.10;;;;;;20876706;28;20000;-75
2022/05/26 17:01:38;;;;;;;;;;;19.50;60.00;;;;;;20877320;28;19927;-75
2022/05/26 17:11:38;;;;;;;;;;;19.60;60.00;;;;;;20881031;28;19909;-75
2022/05/26 17:21:40;;;;;;;;;;;19.50;59.90;;;;;;20876211;28;19954;-77
2022/05/26 17:31:41;;;;;;;;;;;19.50;59.80;;;;;;20867876;28;19912;-84
2022/05/26 17:41:42;;;;;;;;;;;19.40;59.80;;;;;;20854734;28;19920;-79
2022/05/26 17:51:43;;;;;;;;;;;19.50;59.80;;;;;;20864924;28;20585;-79
2022/05/26 18:01:47;;;;;;;;;;;19.40;59.80;;;;;;20883993;28;20416;-81
2022/05/26 18:11:48;;;;;;;;;;;19.40;59.90;;;;;;20877343;28;19909;-81
2022/05/26 18:21:48;;;;;;;;;;;19.30;60.00;;;;;;20855086;28;19916;-81
2022/05/26 18:31:49;;;;;;;;;;;19.40;60.30;;;;;;20872333;28;19909;-77
2022/05/26 18:41:50;;;;;;;;;;;19.50;60.50;;;;;;20899679;28;19974;-78
2022/05/26 18:51:51;;;;;;;;;;;19.40;60.60;;;;;;20898199;28;19913;-78
2022/05/26 19:01:51;;;;;;;;;;;19.40;60.70;;;;;;20882361;28;19944;-78
2022/05/26 19:11:54;;;;;;;;;;;19.40;60.80;;;;;;20869137;28;20368;-78
2022/05/26 19:21:55;;;;;;;;;;;19.40;60.90;;;;;;20871373;28;20281;-78
2022/05/26 19:31:57;;;;;;;;;;;19.40;60.90;;;;;;20872267;28;19912;-78
2022/05/26 19:41:58;;;;;;;;;;;19.30;60.80;;;;;;20881966;28;19990;-78
2022/05/26 19:51:59;;;;;;;;;;;19.40;60.90;;;;;;20885227;28;19978;-78
2022/05/26 20:02:00;;;;;;;;;;;19.40;60.90;;;;;;20868121;28;19917;-79
2022/05/26 20:12:00;;;;;;;;;;;19.30;60.80;;;;;;20881618;28;19920;-79
2022/05/26 20:22:01;;;;;;;;;;;19.30;60.90;;;;;;20898467;28;19920;-78
2022/05/26 20:32:02;;;;;;;;;;;19.20;60.80;;;;;;20898079;28;20017;-78
2022/05/26 20:42:03;;;;;;;;;;;19.30;60.90;;;;;;20880941;28;19923;-79
2022/05/26 20:52:08;;;;;;;;;;;19.30;61.00;;;;;;20880066;28;19909;-79
2022/05/26 21:02:08;;;;;;;;;;;19.30;61.10;;;;;;20895113;28;19966;-78
2022/05/26 21:12:09;;;;;;;;;;;19.20;61.30;;;;;;20878791;28;20499;-79
2022/05/26 21:22:12;;;;;;;;;;;19.30;61.50;;;;;;20876361;28;19966;-79
2022/05/26 21:32:14;;;;;;;;;;;19.20;61.80;;;;;;20877394;28;20361;-79
2022/05/26 21:42:16;;;;;;;;;;;19.20;62.30;;;;;;20875359;28;19917;-78
2022/05/26 21:52:17;;;;;;;;;;;19.20;62.70;;;;;;20874318;28;20396;-79
2022/05/26 22:02:18;;;;;;;;;;;19.20;63.00;;;;;;20907937;28;19916;-80
2022/05/26 22:12:19;;;;;;;;;;;19.20;63.10;;;;;;20889896;28;20346;-80
2022/05/26 22:22:23;;;;;;;;;;;19.10;63.20;;;;;;20872621;28;19920;-79
2022/05/26 22:32:25;;;;;;;;;;;19.20;63.40;;;;;;20873488;28;19915;-78
2022/05/26 22:42:28;;;;;;;;;;;19.10;63.40;;;;;;20887727;28;19948;-79
2022/05/26 22:52:28;;;;;;;;;;;19.10;63.50;;;;;;20870774;28;20423;-79
2022/05/26 23:02:29;;;;;;;;;;;19.10;63.60;;;;;;20869917;28;19909;-79
2022/05/26 23:12:29;;;;;;;;;;;19.10;63.70;;;;;;20885405;28;20345;-78
2022/05/26 23:22:30;;;;;;;;;;;19.10;63.60;;;;;;20852965;28;19921;-79
2022/05/26 23:32:30;;;;;;;;;;;19.10;63.80;;;;;;20868092;28;19908;-79
2022/05/26 23:43:32;;;;;;;;;;;19.10;63.80;;;;;;20868689;28;19913;-78
2022/05/26 23:53:00;;;;;;;;;;;19.10;63.90;;;;;;20874990;28;19924;-79
